Rochester, Minnesota
Current Conditions -  °F | °C
As of 9:54 AM on Friday 19 Dec 2014 (Local Time) from KRST Reporting Station
Haze Haze  
Wind Chill: 16°   Ceiling: 2300
Heat Index: 25°   Visibility: 6mi
Dew Point: 20°   Wind: 9mph
Humidity: 81%   Direction: 160°SSE
Pressure: 30.24"   Gusts: NA
Location:  44.02°N, 92.46°W
Report Text: KRST 191554Z 16008KT 6SM HZ SCT019 OVC023 M04/M07 A3024 RMK AO2 SLP263 T10391067
Loading
Personal Weather Stations






























Interactive Weather Map New forecast layout! Learn more

10-Day Weather Forecast

Advertisements
Track Severe Weather on mobile